This is the latest recevied weather packets stored in our database for station/object IZ1GCT. If no packets are shown the sender has not sent any weather packets the latest 10 day(s).
| Time | Temp. | Humidity | Pressure | Rain* | Wind** | Luminosity | Snow |
|---|---|---|---|---|---|---|---|
| 1777700453 | 11.67° C | 53% | 1029 hPa | 0 mm | - | - | - |
| 1777700154 | 11.11° C | 54% | 1029 hPa | 0 mm | - | - | - |
| 1777699853 | 10.56° C | 58% | 1029 hPa | 0 mm | - | - | - |
| 1777699552 | 10° C | 60% | 1029 hPa | 0 mm | - | - | - |
| 1777699252 | 9.44° C | 60% | 1029 hPa | 0 mm | - | - | - |
| 1777698954 | 8.89° C | 60% | 1028.9 hPa | 0 mm | - | - | - |
| 1777698653 | 8.89° C | 62% | 1028.8 hPa | 0 mm | - | - | - |
| 1777698353 | 8.33° C | 65% | 1028.9 hPa | 0 mm | - | - | - |
| 1777698052 | 7.78° C | 69% | 1028.9 hPa | 0 mm | - | - | - |
| 1777697753 | 7.22° C | 70% | 1028.9 hPa | 0 mm | - | - | - |
| 1777697454 | 7.78° C | 68% | 1028.8 hPa | 0 mm | - | - | - |
| 1777697154 | 7.78° C | 70% | 1028.7 hPa | 0 mm | - | - | - |
| 1777696853 | 7.22° C | 75% | 1028.8 hPa | 0 mm | - | - | - |
| 1777696553 | 7.22° C | 76% | 1028.9 hPa | 0 mm | - | - | - |
| 1777696241 | 6.67° C | 78% | 1028.9 hPa | 0 mm | - | - | - |
| 1777695940 | 6.67° C | 77% | 1028.8 hPa | 0 mm | - | - | - |
| 1777695642 | 7.22° C | 76% | 1029 hPa | 0 mm | - | - | - |
| 1777695342 | 7.22° C | 74% | 1028.9 hPa | 0 mm | - | - | - |
| 1777695041 | 7.78° C | 70% | 1028.9 hPa | 0 mm | - | - | - |
| 1777694740 | 7.78° C | 69% | 1028.9 hPa | 0 mm | - | - | - |
| 1777694143 | 8.33° C | 67% | 1028.7 hPa | 0 mm | - | - | - |
| 1777693842 | 8.33° C | 66% | 1028.8 hPa | 0 mm | - | - | - |
| 1777693543 | 7.78° C | 70% | 1028.8 hPa | 0 mm | - | - | - |
| 1777693243 | 7.78° C | 70% | 1028.7 hPa | 0 mm | - | - | - |
| 1777692942 | 8.33° C | 70% | 1028.7 hPa | 0 mm | - | - | - |
* Rain latest hour (hover to see other rain measurements)
** Current wind speed in m/s (hover to see current wind gust speed)